createdAt,value
2022-08-20T00:01:38.947Z,16.90
2022-08-20T00:04:06.091Z,16.90
2022-08-20T00:06:37.400Z,16.90
2022-08-20T00:09:05.000Z,16.90
2022-08-20T00:11:33.682Z,16.90
2022-08-20T00:14:05.747Z,16.90
2022-08-20T00:16:37.900Z,16.90
2022-08-20T00:19:09.501Z,16.80
2022-08-20T00:21:49.130Z,16.80
2022-08-20T00:24:20.219Z,16.80
2022-08-20T00:26:52.678Z,16.80
2022-08-20T00:29:24.430Z,16.70
2022-08-20T00:31:57.109Z,16.70
2022-08-20T00:34:24.247Z,16.70
2022-08-20T00:36:51.232Z,16.60
2022-08-20T00:39:18.158Z,16.60
2022-08-20T00:41:45.884Z,16.60
2022-08-20T00:44:16.079Z,16.50
2022-08-20T00:46:50.374Z,16.50
2022-08-20T00:49:27.953Z,16.40
2022-08-20T00:52:06.768Z,16.40
2022-08-20T00:54:52.282Z,16.30
2022-08-20T00:58:00.743Z,16.30
2022-08-20T01:00:43.540Z,16.30
2022-08-20T01:03:17.397Z,16.30
2022-08-20T01:05:48.510Z,16.20
2022-08-20T01:08:18.916Z,16.20
2022-08-20T01:10:49.923Z,16.20
2022-08-20T01:13:23.660Z,16.10
2022-08-20T01:15:54.589Z,16.10
2022-08-20T01:18:28.713Z,16.10
2022-08-20T01:21:03.208Z,16.10
2022-08-20T01:24:00.812Z,16.10
2022-08-20T01:26:35.379Z,16.10
2022-08-20T01:29:11.562Z,16.10
2022-08-20T01:31:41.571Z,16.10
2022-08-20T01:34:14.056Z,16.10
2022-08-20T01:36:53.438Z,16.10
2022-08-20T01:39:35.224Z,16.10
2022-08-20T01:42:25.959Z,16.10
2022-08-20T01:44:53.031Z,16.10
2022-08-20T01:47:31.417Z,16.10
2022-08-20T01:50:20.537Z,16.10
2022-08-20T01:52:59.681Z,16.10
2022-08-20T01:55:27.824Z,16.10
2022-08-20T01:57:55.363Z,16.00
2022-08-20T02:00:23.866Z,16.00
2022-08-20T02:02:51.926Z,15.90
2022-08-20T02:05:20.150Z,15.90
2022-08-20T02:07:47.270Z,15.90
2022-08-20T02:10:17.502Z,15.80
2022-08-20T02:12:44.683Z,15.80
2022-08-20T02:15:12.689Z,15.70
2022-08-20T02:17:41.866Z,15.70
2022-08-20T02:20:20.035Z,15.70
2022-08-20T02:22:57.398Z,15.70
2022-08-20T02:25:28.377Z,15.70
2022-08-20T02:27:57.626Z,15.70
2022-08-20T02:30:35.923Z,15.70
2022-08-20T02:33:07.060Z,15.60
2022-08-20T02:35:35.342Z,15.60
2022-08-20T02:38:02.870Z,15.50
2022-08-20T02:40:31.476Z,15.50
2022-08-20T02:43:02.477Z,15.50
2022-08-20T02:45:34.718Z,15.50
2022-08-20T02:48:01.632Z,15.40
2022-08-20T02:50:28.610Z,15.40
2022-08-20T02:52:55.632Z,15.40
2022-08-20T02:55:28.037Z,15.40
2022-08-20T02:58:00.375Z,15.30
2022-08-20T03:00:37.831Z,15.30
2022-08-20T03:03:10.405Z,15.30
2022-08-20T03:05:39.948Z,15.40
2022-08-20T03:08:10.966Z,15.30
2022-08-20T03:10:40.001Z,15.30
2022-08-20T03:13:12.562Z,15.30
2022-08-20T03:15:52.497Z,15.30
2022-08-20T03:18:25.173Z,15.30
2022-08-20T03:20:52.528Z,15.30
2022-08-20T03:23:21.398Z,15.30
2022-08-20T03:25:48.666Z,15.30
2022-08-20T03:28:17.248Z,15.30
2022-08-20T03:30:44.680Z,15.20
2022-08-20T03:33:11.827Z,15.20
2022-08-20T03:35:39.312Z,15.20
2022-08-20T03:38:12.237Z,15.20
2022-08-20T03:40:41.259Z,15.20
2022-08-20T03:43:09.416Z,15.10
2022-08-20T03:45:39.924Z,15.10
2022-08-20T03:48:10.418Z,15.10
2022-08-20T03:50:37.818Z,15.00
2022-08-20T03:53:04.933Z,15.00
2022-08-20T03:55:32.766Z,15.00
2022-08-20T03:58:03.312Z,15.00
2022-08-20T04:00:45.322Z,15.00
2022-08-20T04:03:12.373Z,14.90
2022-08-20T04:05:41.051Z,14.90
2022-08-20T04:08:12.850Z,14.90
2022-08-20T04:10:39.990Z,14.80
2022-08-20T04:13:08.088Z,14.90
2022-08-20T04:15:37.060Z,14.80
2022-08-20T04:18:09.012Z,14.80
2022-08-20T04:20:40.263Z,14.80
2022-08-20T04:23:08.659Z,14.90
2022-08-20T04:25:43.181Z,14.90
2022-08-20T04:28:28.613Z,15.00
2022-08-20T04:30:58.897Z,15.10
2022-08-20T04:33:33.969Z,15.10
2022-08-20T04:36:06.083Z,15.20
2022-08-20T04:38:48.143Z,15.30
2022-08-20T04:41:22.524Z,15.30
2022-08-20T04:43:51.240Z,15.30
2022-08-20T04:46:18.428Z,15.30
2022-08-20T04:48:49.078Z,15.20
2022-08-20T04:51:18.332Z,15.20
2022-08-20T04:53:53.136Z,15.20
2022-08-20T04:56:29.239Z,15.20
2022-08-20T04:59:00.601Z,15.20
2022-08-20T05:01:29.014Z,15.20
2022-08-20T05:03:58.026Z,15.10
2022-08-20T05:06:30.560Z,15.10
2022-08-20T05:09:00.456Z,15.10
2022-08-20T05:11:34.024Z,15.10
2022-08-20T05:14:06.187Z,15.10
2022-08-20T05:16:38.129Z,15.10
2022-08-20T05:19:08.804Z,15.10
2022-08-20T05:21:36.213Z,15.20
2022-08-20T05:24:03.439Z,15.30
2022-08-20T05:26:30.341Z,15.30
2022-08-20T05:28:59.060Z,15.30
2022-08-20T05:31:31.924Z,15.40
2022-08-20T05:34:12.556Z,15.50
2022-08-20T05:36:49.854Z,15.50
2022-08-20T05:39:19.206Z,15.60
2022-08-20T05:41:47.763Z,15.60
2022-08-20T05:44:15.026Z,15.70
2022-08-20T05:46:44.878Z,15.70
2022-08-20T05:49:16.356Z,15.70
2022-08-20T05:51:43.776Z,15.80
2022-08-20T05:54:13.604Z,15.80
2022-08-20T05:56:40.973Z,15.80
2022-08-20T05:59:10.315Z,15.90
2022-08-20T06:01:39.718Z,15.90
2022-08-20T06:04:28.132Z,16.00
2022-08-20T06:07:03.039Z,16.00
2022-08-20T06:09:32.163Z,16.10
2022-08-20T06:12:09.469Z,16.20
2022-08-20T06:14:38.313Z,16.30
2022-08-20T06:17:09.090Z,16.30
2022-08-20T06:19:38.722Z,16.40
2022-08-20T06:22:17.865Z,16.50
2022-08-20T06:24:50.206Z,16.50
2022-08-20T06:27:17.751Z,16.60
2022-08-20T06:29:44.901Z,16.70
2022-08-20T06:32:12.091Z,16.70
2022-08-20T06:34:50.513Z,16.80
2022-08-20T06:37:31.460Z,16.90
2022-08-20T06:40:13.540Z,16.90
2022-08-20T06:42:48.533Z,17.00
2022-08-20T06:45:20.778Z,17.10
2022-08-20T06:47:48.366Z,17.20
2022-08-20T06:50:23.881Z,17.30
2022-08-20T06:52:52.638Z,17.40
2022-08-20T06:55:21.594Z,17.60
2022-08-20T06:58:32.693Z,17.80
2022-08-20T07:01:04.918Z,18.20
2022-08-20T07:03:38.088Z,18.70
2022-08-20T07:06:06.038Z,19.60
2022-08-20T07:08:33.988Z,20.50
2022-08-20T07:11:01.957Z,21.30
2022-08-20T07:13:29.150Z,21.80
2022-08-20T07:15:56.704Z,22.20
2022-08-20T07:18:28.888Z,22.40
2022-08-20T07:21:00.023Z,22.70
2022-08-20T07:23:27.580Z,23.00
2022-08-20T07:26:00.712Z,23.40
2022-08-20T07:28:32.672Z,23.60
2022-08-20T07:31:20.413Z,23.60
2022-08-20T07:33:50.291Z,22.90
2022-08-20T07:36:18.432Z,21.90
2022-08-20T07:38:47.507Z,21.10
2022-08-20T07:41:14.845Z,20.60
2022-08-20T07:43:45.761Z,20.40
2022-08-20T07:46:20.793Z,20.30
2022-08-20T07:48:50.483Z,20.40
2022-08-20T07:51:22.455Z,20.90
2022-08-20T07:53:51.665Z,22.10
2022-08-20T07:56:24.254Z,23.20
2022-08-20T07:58:55.371Z,24.10
2022-08-20T08:01:30.654Z,24.40
2022-08-20T08:03:59.899Z,24.50
2022-08-20T08:06:31.118Z,24.20
2022-08-20T08:09:10.611Z,24.00
2022-08-20T08:11:44.972Z,23.90
2022-08-20T08:14:15.058Z,23.80
2022-08-20T08:16:45.667Z,23.90
2022-08-20T08:19:15.481Z,23.90
2022-08-20T08:21:43.622Z,23.80
2022-08-20T08:24:12.162Z,23.60
2022-08-20T08:26:41.459Z,23.70
2022-08-20T08:29:08.441Z,23.90
2022-08-20T08:31:35.744Z,24.10
2022-08-20T08:34:02.694Z,24.10
2022-08-20T08:36:29.733Z,24.00
2022-08-20T08:38:56.848Z,24.00
2022-08-20T08:41:51.347Z,23.90
2022-08-20T08:44:27.240Z,23.90
2022-08-20T08:47:18.324Z,23.70
2022-08-20T08:49:47.575Z,23.60
2022-08-20T08:52:24.768Z,23.70
2022-08-20T08:55:02.217Z,23.80
2022-08-20T08:57:29.456Z,23.70
2022-08-20T09:00:10.515Z,23.60
2022-08-20T09:02:38.995Z,23.50
2022-08-20T09:05:17.034Z,23.50
2022-08-20T09:07:48.951Z,23.40
2022-08-20T09:10:17.574Z,23.50
2022-08-20T09:12:50.801Z,23.40
2022-08-20T09:15:21.166Z,23.30
2022-08-20T09:17:48.280Z,23.30
2022-08-20T09:20:15.249Z,23.40
2022-08-20T09:22:42.290Z,23.30
2022-08-20T09:25:09.614Z,23.20
2022-08-20T09:27:36.723Z,23.40
2022-08-20T09:30:07.045Z,23.40
2022-08-20T09:32:34.587Z,23.10
2022-08-20T09:35:04.813Z,23.00
2022-08-20T09:37:37.462Z,23.10
2022-08-20T09:40:07.640Z,23.00
2022-08-20T09:42:41.232Z,22.90
2022-08-20T09:45:11.465Z,23.10
2022-08-20T09:47:54.792Z,23.50
2022-08-20T09:50:30.840Z,23.80
2022-08-20T09:53:00.079Z,24.00
2022-08-20T09:55:46.072Z,24.30
2022-08-20T09:58:31.414Z,24.40
2022-08-20T10:01:14.155Z,24.20
2022-08-20T10:03:48.254Z,23.90
2022-08-20T10:06:19.586Z,23.60
2022-08-20T10:08:47.613Z,23.30
2022-08-20T10:11:14.587Z,22.80
2022-08-20T10:13:41.667Z,22.60
2022-08-20T10:16:08.677Z,22.90
2022-08-20T10:18:37.037Z,23.40
2022-08-20T10:21:10.161Z,23.80
2022-08-20T10:23:37.077Z,24.10
2022-08-20T10:26:04.387Z,24.60
2022-08-20T10:28:31.319Z,24.40
2022-08-20T10:30:58.227Z,24.20
2022-08-20T10:33:28.275Z,23.50
2022-08-20T10:35:59.734Z,23.60
2022-08-20T10:38:26.961Z,23.80
2022-08-20T10:40:53.869Z,24.00
2022-08-20T10:43:20.796Z,23.90
2022-08-20T10:45:47.785Z,23.90
2022-08-20T10:48:19.455Z,23.60
2022-08-20T10:50:49.153Z,23.60
2022-08-20T10:53:16.673Z,24.00
2022-08-20T10:55:44.488Z,23.90
2022-08-20T10:58:13.128Z,23.90
2022-08-20T11:00:41.606Z,24.40
2022-08-20T11:03:08.593Z,24.20
2022-08-20T11:05:35.904Z,24.40
2022-08-20T11:08:05.075Z,24.70
2022-08-20T11:10:35.041Z,24.70
2022-08-20T11:13:04.615Z,24.50
2022-08-20T11:15:33.454Z,23.90
2022-08-20T11:18:00.392Z,23.40
2022-08-20T11:20:27.356Z,23.40
2022-08-20T11:22:54.781Z,24.20
2022-08-20T11:25:21.865Z,24.70
2022-08-20T11:27:51.381Z,24.40
2022-08-20T11:30:29.303Z,24.40
2022-08-20T11:32:58.391Z,24.70
2022-08-20T11:35:48.899Z,24.90
2022-08-20T11:38:13.264Z,25.00
2022-08-20T11:40:40.284Z,24.90
2022-08-20T11:43:15.872Z,24.80
2022-08-20T11:45:50.774Z,24.70
2022-08-20T11:48:18.379Z,24.60
2022-08-20T11:50:46.722Z,25.00
2022-08-20T11:53:14.823Z,25.60
2022-08-20T11:55:42.702Z,25.60
2022-08-20T11:58:10.882Z,25.50
2022-08-20T12:00:37.837Z,24.90
2022-08-20T12:03:08.755Z,24.60
2022-08-20T12:05:38.259Z,24.30
2022-08-20T12:08:06.067Z,24.70
2022-08-20T12:10:33.113Z,25.40
2022-08-20T12:13:00.290Z,26.10
2022-08-20T12:15:29.884Z,26.80
2022-08-20T12:17:56.887Z,27.50
2022-08-20T12:20:24.527Z,27.10
2022-08-20T12:22:52.645Z,27.10
2022-08-20T12:25:20.261Z,26.70
2022-08-20T12:27:47.385Z,26.30
2022-08-20T12:30:19.943Z,25.70
2022-08-20T12:32:47.424Z,25.20
2022-08-20T12:35:16.775Z,25.10
2022-08-20T12:37:45.653Z,25.00
2022-08-20T12:40:31.983Z,25.30
2022-08-20T12:43:02.418Z,25.50
2022-08-20T12:45:30.741Z,25.50
2022-08-20T12:48:06.253Z,25.10
2022-08-20T12:50:34.764Z,25.00
2022-08-20T12:53:03.202Z,24.40
2022-08-20T12:55:31.019Z,24.30
2022-08-20T12:58:01.918Z,24.40
2022-08-20T13:00:34.286Z,24.50
2022-08-20T13:03:04.782Z,24.80
2022-08-20T13:05:33.110Z,25.40
2022-08-20T13:08:00.471Z,25.90
2022-08-20T13:10:33.340Z,26.00
2022-08-20T13:13:03.973Z,26.00
2022-08-20T13:15:32.906Z,26.30
2022-08-20T13:18:02.306Z,26.20
2022-08-20T13:20:34.161Z,25.60
2022-08-20T13:23:03.386Z,25.40
2022-08-20T13:25:30.957Z,25.00
2022-08-20T13:28:00.214Z,24.90
2022-08-20T13:30:27.919Z,24.90
2022-08-20T13:32:55.136Z,24.60
2022-08-20T13:35:22.431Z,24.40
2022-08-20T13:37:50.494Z,24.30
2022-08-20T13:40:18.604Z,24.70
2022-08-20T13:42:45.860Z,25.30
2022-08-20T13:45:12.847Z,25.20
2022-08-20T13:47:44.794Z,25.20
2022-08-20T13:50:21.981Z,25.30
2022-08-20T13:52:49.172Z,25.30
2022-08-20T13:55:19.523Z,24.90
2022-08-20T13:57:47.913Z,24.60
2022-08-20T14:00:28.106Z,24.20
2022-08-20T14:03:02.724Z,24.40
2022-08-20T14:05:31.537Z,25.10
2022-08-20T14:08:12.195Z,25.40
2022-08-20T14:10:39.874Z,25.00
2022-08-20T14:13:15.114Z,24.70
2022-08-20T14:15:43.568Z,24.50
2022-08-20T14:18:10.635Z,24.60
2022-08-20T14:20:38.787Z,24.50
2022-08-20T14:23:06.608Z,24.40
2022-08-20T14:25:33.786Z,24.60
2022-08-20T14:28:18.173Z,24.60
2022-08-20T14:30:52.652Z,24.80
2022-08-20T14:33:21.887Z,25.10
2022-08-20T14:35:48.862Z,25.50
2022-08-20T14:38:15.797Z,25.80
2022-08-20T14:40:42.727Z,25.90
2022-08-20T14:43:09.644Z,25.90
2022-08-20T14:45:36.569Z,25.90
2022-08-20T14:48:07.714Z,25.40
2022-08-20T14:50:35.898Z,25.10
2022-08-20T14:53:04.262Z,24.70
2022-08-20T14:55:37.347Z,24.60
2022-08-20T14:58:12.606Z,24.50
2022-08-20T15:00:40.352Z,24.30
2022-08-20T15:03:07.412Z,24.40
2022-08-20T15:05:39.652Z,24.70
2022-08-20T15:08:08.033Z,24.80
2022-08-20T15:10:37.286Z,24.80
2022-08-20T15:13:04.360Z,24.80
2022-08-20T15:15:31.330Z,24.90
2022-08-20T15:18:03.481Z,24.90
2022-08-20T15:20:33.264Z,24.80
2022-08-20T15:23:01.203Z,24.80
2022-08-20T15:25:36.429Z,24.70
2022-08-20T15:28:08.685Z,24.70
2022-08-20T15:30:38.816Z,24.50
2022-08-20T15:33:05.932Z,24.30
2022-08-20T15:35:32.917Z,24.20
2022-08-20T15:38:00.381Z,24.30
2022-08-20T15:40:31.727Z,24.40
2022-08-20T15:43:01.403Z,24.60
2022-08-20T15:45:28.912Z,24.60
2022-08-20T15:48:23.035Z,24.60
2022-08-20T15:51:32.301Z,24.50
2022-08-20T15:54:05.076Z,24.20
2022-08-20T15:57:03.908Z,24.10
2022-08-20T16:00:14.296Z,24.10
2022-08-20T16:03:30.264Z,24.40
2022-08-20T16:06:22.057Z,24.60
2022-08-20T16:09:10.971Z,24.70
2022-08-20T16:12:10.410Z,24.60
2022-08-20T16:14:45.200Z,24.70
2022-08-20T16:17:18.035Z,24.80
2022-08-20T16:20:02.206Z,24.70
2022-08-20T16:22:31.659Z,24.30
2022-08-20T16:24:58.743Z,24.10
2022-08-20T16:27:54.379Z,24.10
2022-08-20T16:30:40.106Z,24.00
2022-08-20T16:33:17.921Z,23.70
2022-08-20T16:35:57.929Z,23.70
2022-08-20T16:38:50.210Z,23.80
2022-08-20T16:41:24.039Z,23.70
2022-08-20T16:44:33.948Z,23.60
2022-08-20T16:47:39.885Z,23.50
2022-08-20T16:50:16.212Z,23.40
2022-08-20T16:52:46.246Z,23.40
2022-08-20T16:55:14.489Z,23.30
2022-08-20T16:57:41.975Z,23.20
2022-08-20T17:00:15.640Z,23.30
2022-08-20T17:03:02.326Z,23.30
2022-08-20T17:05:37.903Z,23.40
2022-08-20T17:08:08.033Z,23.50
2022-08-20T17:10:55.436Z,23.60
2022-08-20T17:13:37.023Z,23.60
2022-08-20T17:16:16.939Z,23.60
2022-08-20T17:18:52.866Z,23.60
2022-08-20T17:21:28.025Z,23.50
2022-08-20T17:24:16.782Z,23.30
2022-08-20T17:26:56.777Z,23.10
2022-08-20T17:29:32.160Z,23.00
2022-08-20T17:32:09.950Z,22.80
2022-08-20T17:34:53.688Z,22.70
2022-08-20T17:37:32.747Z,22.50
2022-08-20T17:40:34.618Z,22.40
2022-08-20T17:43:09.394Z,22.30
2022-08-20T17:45:45.389Z,22.30
2022-08-20T17:48:29.267Z,22.20
2022-08-20T17:50:56.883Z,22.10
2022-08-20T17:53:29.828Z,22.00
2022-08-20T17:56:02.133Z,22.00
2022-08-20T17:59:24.001Z,22.10
2022-08-20T18:02:03.772Z,22.10
2022-08-20T18:04:32.206Z,22.00
2022-08-20T18:07:08.821Z,22.00
2022-08-20T18:10:10.454Z,22.00
2022-08-20T18:13:01.610Z,22.00
2022-08-20T18:15:34.436Z,22.00
2022-08-20T18:18:14.741Z,22.00
2022-08-20T18:21:33.445Z,22.00
2022-08-20T18:24:12.368Z,22.00
2022-08-20T18:26:49.762Z,21.90
2022-08-20T18:29:27.503Z,21.90
2022-08-20T18:32:02.192Z,21.80
2022-08-20T18:34:29.693Z,21.70
2022-08-20T18:37:21.848Z,21.70
2022-08-20T18:39:51.254Z,21.60
2022-08-20T18:42:34.479Z,21.50
2022-08-20T18:45:01.931Z,21.40
2022-08-20T18:47:34.611Z,21.30
2022-08-20T18:50:16.554Z,21.20
2022-08-20T18:52:52.609Z,21.10
2022-08-20T18:55:32.265Z,21.00
2022-08-20T18:58:39.116Z,20.80
2022-08-20T19:01:12.803Z,20.60
2022-08-20T19:03:55.232Z,20.50
2022-08-20T19:06:29.283Z,20.40
2022-08-20T19:09:24.076Z,20.30
2022-08-20T19:12:19.449Z,20.20
2022-08-20T19:15:16.697Z,20.10
2022-08-20T19:18:16.316Z,19.90
2022-08-20T19:21:02.545Z,19.70
2022-08-20T19:23:38.142Z,19.60
2022-08-20T19:26:25.417Z,19.50
2022-08-20T19:29:17.168Z,19.40
2022-08-20T19:31:44.621Z,19.30
2022-08-20T19:34:24.180Z,19.20
2022-08-20T19:37:34.889Z,19.10
2022-08-20T19:40:08.778Z,19.00
2022-08-20T19:42:43.127Z,18.80
2022-08-20T19:45:22.827Z,18.70
2022-08-20T19:48:13.072Z,18.60
2022-08-20T19:50:55.637Z,18.50
2022-08-20T19:53:34.048Z,18.40
2022-08-20T19:56:02.504Z,18.30
2022-08-20T19:58:31.998Z,18.30
2022-08-20T20:01:02.209Z,18.20
2022-08-20T20:03:40.555Z,18.10
2022-08-20T20:06:16.978Z,18.10
2022-08-20T20:09:17.089Z,18.10
2022-08-20T20:12:04.068Z,18.00
2022-08-20T20:14:35.725Z,18.00
2022-08-20T20:17:07.144Z,17.90
2022-08-20T20:19:59.119Z,17.90
2022-08-20T20:22:32.390Z,17.90
2022-08-20T20:25:06.948Z,17.90
2022-08-20T20:27:36.565Z,17.90
2022-08-20T20:30:13.716Z,17.90
2022-08-20T20:32:44.786Z,17.90
2022-08-20T20:35:27.120Z,17.90
2022-08-20T20:38:08.692Z,17.90
2022-08-20T20:40:53.930Z,17.90
2022-08-20T20:43:35.791Z,17.80
2022-08-20T20:46:24.584Z,17.80
2022-08-20T20:49:08.544Z,17.70
2022-08-20T20:51:42.398Z,17.70
2022-08-20T20:54:27.891Z,17.60
2022-08-20T20:57:10.052Z,17.50
2022-08-20T20:59:38.160Z,17.50
2022-08-20T21:02:05.221Z,17.40
2022-08-20T21:04:32.888Z,17.40
2022-08-20T21:07:07.327Z,17.30
2022-08-20T21:09:36.587Z,17.20
2022-08-20T21:12:04.878Z,17.10
2022-08-20T21:14:31.805Z,17.00
2022-08-20T21:17:02.762Z,17.00
2022-08-20T21:19:30.501Z,16.90
2022-08-20T21:21:57.654Z,16.80
2022-08-20T21:24:24.661Z,16.70
2022-08-20T21:26:52.560Z,16.60
2022-08-20T21:29:32.322Z,16.60
2022-08-20T21:32:00.152Z,16.50
2022-08-20T21:34:27.404Z,16.40
2022-08-20T21:36:54.563Z,16.40
2022-08-20T21:39:23.249Z,16.40
2022-08-20T21:41:51.575Z,16.40
2022-08-20T21:44:26.238Z,16.50
2022-08-20T21:46:54.976Z,16.50
2022-08-20T21:49:24.654Z,16.50
2022-08-20T21:51:52.562Z,16.50
2022-08-20T21:54:19.909Z,16.50
2022-08-20T21:56:53.067Z,16.50
2022-08-20T21:59:22.742Z,16.60
2022-08-20T22:01:50.529Z,16.50
2022-08-20T22:04:17.847Z,16.50
2022-08-20T22:06:45.540Z,16.40
2022-08-20T22:09:13.196Z,16.40
2022-08-20T22:11:40.191Z,16.30
2022-08-20T22:14:09.383Z,16.30
2022-08-20T22:16:36.333Z,16.20
2022-08-20T22:19:03.698Z,16.20
2022-08-20T22:21:34.055Z,16.10
2022-08-20T22:24:06.499Z,16.10
2022-08-20T22:26:35.465Z,16.00
2022-08-20T22:29:04.429Z,15.90
2022-08-20T22:31:35.833Z,15.90
2022-08-20T22:34:03.863Z,15.80
2022-08-20T22:36:32.776Z,15.70
2022-08-20T22:39:00.048Z,15.70
2022-08-20T22:41:27.119Z,15.60
2022-08-20T22:43:56.575Z,15.60
2022-08-20T22:46:27.141Z,15.60
2022-08-20T22:48:55.336Z,15.50
2022-08-20T22:51:30.230Z,15.50
2022-08-20T22:53:58.372Z,15.50
2022-08-20T22:56:26.107Z,15.40
2022-08-20T22:58:53.187Z,15.30
2022-08-20T23:01:20.779Z,15.30
2022-08-20T23:03:47.735Z,15.20
2022-08-20T23:06:14.703Z,15.20
2022-08-20T23:08:42.225Z,15.20
2022-08-20T23:11:09.748Z,15.10
2022-08-20T23:13:36.766Z,15.10
2022-08-20T23:16:05.572Z,15.10
2022-08-20T23:18:32.563Z,15.00
2022-08-20T23:20:59.938Z,15.00
2022-08-20T23:23:27.683Z,15.00
2022-08-20T23:25:55.546Z,14.90
2022-08-20T23:28:25.785Z,14.90
2022-08-20T23:30:52.975Z,14.80
2022-08-20T23:33:21.842Z,14.80
2022-08-20T23:35:49.511Z,14.80
2022-08-20T23:38:16.724Z,14.80
2022-08-20T23:40:43.830Z,14.80
2022-08-20T23:43:14.424Z,14.80
2022-08-20T23:45:42.207Z,14.80
2022-08-20T23:48:09.337Z,14.80
2022-08-20T23:50:37.408Z,14.80
2022-08-20T23:53:05.262Z,14.70
2022-08-20T23:55:33.146Z,14.70
2022-08-20T23:58:00.339Z,14.60
